KFCH

Fresno Chandler Executive Airport

Fresno, California, USA
METAR KFCH 181455Z AUTO 14005KT 1 1/4SM BR OVC003 09/09 A3015 RMK A01
Observed Flight Rules
Jan-18 @ 14:55 UTC (21 minutes ago) Instrument Flight Rules
Wind Visibility Clouds Conditions
140° at 5 knots 1 1/4 miles
  • Overcast at 300' AGL
  • Mist
Temperatures Readings
Current 9°C / 48°F
Dewpoint 9°C / 48°F
Humidity 100%
Altimeter 30.15" Hg
Pressure 1021 hPa
Elevation 85
METAR KFCH 181455Z AUTO 14005KT 1 1/4SM BR OVC003 09/09 A3015 RMK A01
Observed Flight Rules
Jan-18 @ 14:55 UTC
(21 minutes ago)
LIFR
Wind Visibility
140° at 5 knots 1 1/4 miles
Clouds
  • Overcast at 300' AGL
Conditions
  • Mist
Temperature Dewpoint
9°C / 48°F 9°C / 48°F
Humidity Altimeter Pressure
100% 30.15" Hg 1021 hPa